sensor_id;sensor_type;location;lat;lon;timestamp;temperature;humidity
11615;DHT22;5863;52.832;4.758;2023-06-10T00:00:48;18.60;99.90
11615;DHT22;5863;52.832;4.758;2023-06-10T00:03:16;18.50;99.90
11615;DHT22;5863;52.832;4.758;2023-06-10T00:05:43;18.50;99.90
11615;DHT22;5863;52.832;4.758;2023-06-10T00:08:10;18.50;99.90
11615;DHT22;5863;52.832;4.758;2023-06-10T00:10:38;18.50;99.90
11615;DHT22;5863;52.832;4.758;2023-06-10T00:13:06;18.50;99.90
11615;DHT22;5863;52.832;4.758;2023-06-10T00:15:34;18.50;99.90
11615;DHT22;5863;52.832;4.758;2023-06-10T00:18:01;18.50;99.90
11615;DHT22;5863;52.832;4.758;2023-06-10T00:20:29;18.40;99.90
11615;DHT22;5863;52.832;4.758;2023-06-10T00:22:56;18.40;99.90
11615;DHT22;5863;52.832;4.758;2023-06-10T00:25:24;18.40;99.90
11615;DHT22;5863;52.832;4.758;2023-06-10T00:27:53;18.40;99.90
11615;DHT22;5863;52.832;4.758;2023-06-10T00:30:21;18.30;99.90
11615;DHT22;5863;52.832;4.758;2023-06-10T00:32:48;18.40;99.90
11615;DHT22;5863;52.832;4.758;2023-06-10T00:35:15;18.30;99.90
11615;DHT22;5863;52.832;4.758;2023-06-10T00:37:41;18.30;99.90
11615;DHT22;5863;52.832;4.758;2023-06-10T00:40:09;18.30;99.90
11615;DHT22;5863;52.832;4.758;2023-06-10T00:42:36;18.30;99.90
11615;DHT22;5863;52.832;4.758;2023-06-10T00:45:06;18.30;99.90
11615;DHT22;5863;52.832;4.758;2023-06-10T00:47:33;18.30;99.90
11615;DHT22;5863;52.832;4.758;2023-06-10T00:50:01;18.30;99.90
11615;DHT22;5863;52.832;4.758;2023-06-10T00:52:29;18.30;99.90
11615;DHT22;5863;52.832;4.758;2023-06-10T00:54:56;18.30;99.90
11615;DHT22;5863;52.832;4.758;2023-06-10T00:57:24;18.20;99.90
11615;DHT22;5863;52.832;4.758;2023-06-10T00:59:50;18.20;99.90
11615;DHT22;5863;52.832;4.758;2023-06-10T01:02:19;18.20;99.90
11615;DHT22;5863;52.832;4.758;2023-06-10T01:04:45;18.20;99.90
11615;DHT22;5863;52.832;4.758;2023-06-10T01:07:21;18.20;99.90
11615;DHT22;5863;52.832;4.758;2023-06-10T01:09:55;18.20;99.90
11615;DHT22;5863;52.832;4.758;2023-06-10T01:12:30;18.10;99.90
11615;DHT22;5863;52.832;4.758;2023-06-10T01:14:59;18.10;99.90
11615;DHT22;5863;52.832;4.758;2023-06-10T01:17:28;18.20;99.90
11615;DHT22;5863;52.832;4.758;2023-06-10T01:19:56;18.10;99.90
11615;DHT22;5863;52.832;4.758;2023-06-10T01:22:25;18.20;99.90
11615;DHT22;5863;52.832;4.758;2023-06-10T01:24:54;18.10;99.90
11615;DHT22;5863;52.832;4.758;2023-06-10T01:27:26;18.10;99.90
11615;DHT22;5863;52.832;4.758;2023-06-10T01:30:00;18.10;99.90
11615;DHT22;5863;52.832;4.758;2023-06-10T01:32:34;18.10;99.90
11615;DHT22;5863;52.832;4.758;2023-06-10T01:35:02;18.10;99.90
11615;DHT22;5863;52.832;4.758;2023-06-10T01:37:32;18.10;99.90
11615;DHT22;5863;52.832;4.758;2023-06-10T01:40:00;18.10;99.90
11615;DHT22;5863;52.832;4.758;2023-06-10T01:42:29;18.10;99.90
11615;DHT22;5863;52.832;4.758;2023-06-10T01:44:56;18.00;99.90
11615;DHT22;5863;52.832;4.758;2023-06-10T01:47:22;18.00;99.90
11615;DHT22;5863;52.832;4.758;2023-06-10T01:49:49;18.00;99.90
11615;DHT22;5863;52.832;4.758;2023-06-10T01:52:16;18.00;99.90
11615;DHT22;5863;52.832;4.758;2023-06-10T01:54:44;18.00;99.90
11615;DHT22;5863;52.832;4.758;2023-06-10T01:57:11;17.90;99.90
11615;DHT22;5863;52.832;4.758;2023-06-10T01:59:37;17.90;99.90
11615;DHT22;5863;52.832;4.758;2023-06-10T02:02:05;17.90;99.90
11615;DHT22;5863;52.832;4.758;2023-06-10T02:04:31;17.90;99.90
11615;DHT22;5863;52.832;4.758;2023-06-10T02:06:58;17.90;99.90
11615;DHT22;5863;52.832;4.758;2023-06-10T02:09:29;17.90;99.90
11615;DHT22;5863;52.832;4.758;2023-06-10T02:11:57;17.90;99.90
11615;DHT22;5863;52.832;4.758;2023-06-10T02:14:24;17.90;99.90
11615;DHT22;5863;52.832;4.758;2023-06-10T02:16:51;17.80;99.90
11615;DHT22;5863;52.832;4.758;2023-06-10T02:19:21;17.80;99.90
11615;DHT22;5863;52.832;4.758;2023-06-10T02:21:48;17.90;99.90
11615;DHT22;5863;52.832;4.758;2023-06-10T02:24:15;17.80;99.90
11615;DHT22;5863;52.832;4.758;2023-06-10T02:26:42;17.80;99.90
11615;DHT22;5863;52.832;4.758;2023-06-10T02:29:10;17.80;99.90
11615;DHT22;5863;52.832;4.758;2023-06-10T02:31:37;17.80;99.90
11615;DHT22;5863;52.832;4.758;2023-06-10T02:34:05;17.80;99.90
11615;DHT22;5863;52.832;4.758;2023-06-10T02:36:31;17.80;99.90
11615;DHT22;5863;52.832;4.758;2023-06-10T02:39:01;17.80;99.90
11615;DHT22;5863;52.832;4.758;2023-06-10T02:41:28;17.80;99.90
11615;DHT22;5863;52.832;4.758;2023-06-10T02:43:54;17.80;99.90
11615;DHT22;5863;52.832;4.758;2023-06-10T02:46:22;17.70;99.90
11615;DHT22;5863;52.832;4.758;2023-06-10T02:48:49;17.70;99.90
11615;DHT22;5863;52.832;4.758;2023-06-10T02:51:17;17.70;99.90
11615;DHT22;5863;52.832;4.758;2023-06-10T02:53:44;17.70;99.90
11615;DHT22;5863;52.832;4.758;2023-06-10T02:56:10;17.70;99.90
11615;DHT22;5863;52.832;4.758;2023-06-10T02:58:38;17.60;99.90
11615;DHT22;5863;52.832;4.758;2023-06-10T03:01:04;17.60;99.90
11615;DHT22;5863;52.832;4.758;2023-06-10T03:03:32;17.60;99.90
11615;DHT22;5863;52.832;4.758;2023-06-10T03:06:00;17.60;99.90
11615;DHT22;5863;52.832;4.758;2023-06-10T03:08:28;17.60;99.90
11615;DHT22;5863;52.832;4.758;2023-06-10T03:10:55;17.50;99.90
11615;DHT22;5863;52.832;4.758;2023-06-10T03:13:21;17.60;99.90
11615;DHT22;5863;52.832;4.758;2023-06-10T03:15:49;17.60;99.90
11615;DHT22;5863;52.832;4.758;2023-06-10T03:18:15;17.60;99.90
11615;DHT22;5863;52.832;4.758;2023-06-10T03:20:43;17.50;99.90
11615;DHT22;5863;52.832;4.758;2023-06-10T03:23:10;17.50;99.90
11615;DHT22;5863;52.832;4.758;2023-06-10T03:25:38;17.50;99.90
11615;DHT22;5863;52.832;4.758;2023-06-10T03:28:04;17.40;99.90
11615;DHT22;5863;52.832;4.758;2023-06-10T03:30:31;17.50;99.90
11615;DHT22;5863;52.832;4.758;2023-06-10T03:32:58;17.50;99.90
11615;DHT22;5863;52.832;4.758;2023-06-10T03:35:25;17.50;99.90
11615;DHT22;5863;52.832;4.758;2023-06-10T03:37:53;17.50;99.90
11615;DHT22;5863;52.832;4.758;2023-06-10T03:40:19;17.50;99.90
11615;DHT22;5863;52.832;4.758;2023-06-10T03:42:46;17.50;99.90
11615;DHT22;5863;52.832;4.758;2023-06-10T03:45:13;17.50;99.90
11615;DHT22;5863;52.832;4.758;2023-06-10T03:47:39;17.40;99.90
11615;DHT22;5863;52.832;4.758;2023-06-10T03:50:07;17.50;99.90
11615;DHT22;5863;52.832;4.758;2023-06-10T03:52:38;17.50;99.90
11615;DHT22;5863;52.832;4.758;2023-06-10T03:55:07;17.40;99.90
11615;DHT22;5863;52.832;4.758;2023-06-10T03:57:34;17.40;99.90
11615;DHT22;5863;52.832;4.758;2023-06-10T04:00:00;17.50;99.90
11615;DHT22;5863;52.832;4.758;2023-06-10T04:02:31;17.50;99.90
11615;DHT22;5863;52.832;4.758;2023-06-10T04:05:00;17.50;99.90
11615;DHT22;5863;52.832;4.758;2023-06-10T04:07:27;17.50;99.90
11615;DHT22;5863;52.832;4.758;2023-06-10T04:09:53;17.50;99.90
11615;DHT22;5863;52.832;4.758;2023-06-10T04:12:21;17.50;99.90
11615;DHT22;5863;52.832;4.758;2023-06-10T04:14:48;17.50;99.90
11615;DHT22;5863;52.832;4.758;2023-06-10T04:17:16;17.60;99.90
11615;DHT22;5863;52.832;4.758;2023-06-10T04:19:43;17.60;99.90
11615;DHT22;5863;52.832;4.758;2023-06-10T04:22:10;17.80;99.90
11615;DHT22;5863;52.832;4.758;2023-06-10T04:24:36;17.80;99.90
11615;DHT22;5863;52.832;4.758;2023-06-10T04:27:03;17.80;99.90
11615;DHT22;5863;52.832;4.758;2023-06-10T04:29:32;17.90;99.90
11615;DHT22;5863;52.832;4.758;2023-06-10T04:31:58;17.90;99.90
11615;DHT22;5863;52.832;4.758;2023-06-10T04:34:25;18.00;99.90
11615;DHT22;5863;52.832;4.758;2023-06-10T04:36:52;18.00;99.90
11615;DHT22;5863;52.832;4.758;2023-06-10T04:39:19;18.10;99.90
11615;DHT22;5863;52.832;4.758;2023-06-10T04:41:45;18.10;99.90
11615;DHT22;5863;52.832;4.758;2023-06-10T04:44:12;18.20;99.90
11615;DHT22;5863;52.832;4.758;2023-06-10T04:46:40;18.40;99.90
11615;DHT22;5863;52.832;4.758;2023-06-10T04:49:07;18.40;99.90
11615;DHT22;5863;52.832;4.758;2023-06-10T04:51:34;18.60;99.90
11615;DHT22;5863;52.832;4.758;2023-06-10T04:54:01;18.80;99.90
11615;DHT22;5863;52.832;4.758;2023-06-10T04:56:29;19.20;99.90
11615;DHT22;5863;52.832;4.758;2023-06-10T04:58:55;19.50;99.90
11615;DHT22;5863;52.832;4.758;2023-06-10T05:01:23;19.80;99.90
11615;DHT22;5863;52.832;4.758;2023-06-10T05:03:51;20.10;99.90
11615;DHT22;5863;52.832;4.758;2023-06-10T05:06:18;20.30;99.90
11615;DHT22;5863;52.832;4.758;2023-06-10T05:08:45;20.40;99.90
11615;DHT22;5863;52.832;4.758;2023-06-10T05:11:11;20.60;99.90
11615;DHT22;5863;52.832;4.758;2023-06-10T05:13:38;20.80;99.90
11615;DHT22;5863;52.832;4.758;2023-06-10T05:16:06;21.00;99.90
11615;DHT22;5863;52.832;4.758;2023-06-10T05:18:33;21.20;99.90
11615;DHT22;5863;52.832;4.758;2023-06-10T05:21:02;21.50;99.90
11615;DHT22;5863;52.832;4.758;2023-06-10T05:23:28;21.80;99.90
11615;DHT22;5863;52.832;4.758;2023-06-10T05:25:55;22.20;99.90
11615;DHT22;5863;52.832;4.758;2023-06-10T05:28:22;22.50;99.90
11615;DHT22;5863;52.832;4.758;2023-06-10T05:30:48;22.80;99.90
11615;DHT22;5863;52.832;4.758;2023-06-10T05:33:15;23.00;99.90
11615;DHT22;5863;52.832;4.758;2023-06-10T05:35:42;23.30;99.90
11615;DHT22;5863;52.832;4.758;2023-06-10T05:38:10;23.50;99.90
11615;DHT22;5863;52.832;4.758;2023-06-10T05:40:37;23.90;99.90
11615;DHT22;5863;52.832;4.758;2023-06-10T05:43:03;24.10;99.90
11615;DHT22;5863;52.832;4.758;2023-06-10T05:45:30;24.30;99.50
11615;DHT22;5863;52.832;4.758;2023-06-10T05:47:57;24.50;99.30
11615;DHT22;5863;52.832;4.758;2023-06-10T05:50:24;24.70;98.80
11615;DHT22;5863;52.832;4.758;2023-06-10T05:52:51;24.90;98.30
11615;DHT22;5863;52.832;4.758;2023-06-10T05:55:20;25.00;98.10
11615;DHT22;5863;52.832;4.758;2023-06-10T05:57:47;25.20;98.10
11615;DHT22;5863;52.832;4.758;2023-06-10T06:00:14;25.50;97.30
11615;DHT22;5863;52.832;4.758;2023-06-10T06:02:41;25.40;96.70
11615;DHT22;5863;52.832;4.758;2023-06-10T06:05:08;25.60;96.80
11615;DHT22;5863;52.832;4.758;2023-06-10T06:07:34;25.80;96.60
11615;DHT22;5863;52.832;4.758;2023-06-10T06:10:01;25.90;96.10
11615;DHT22;5863;52.832;4.758;2023-06-10T06:12:29;26.00;95.80
11615;DHT22;5863;52.832;4.758;2023-06-10T06:14:56;26.30;95.70
11615;DHT22;5863;52.832;4.758;2023-06-10T06:17:22;26.40;95.00
11615;DHT22;5863;52.832;4.758;2023-06-10T06:19:49;26.30;94.60
11615;DHT22;5863;52.832;4.758;2023-06-10T06:22:19;26.20;94.20
11615;DHT22;5863;52.832;4.758;2023-06-10T06:24:48;25.90;94.30
11615;DHT22;5863;52.832;4.758;2023-06-10T06:27:18;25.90;94.60
11615;DHT22;5863;52.832;4.758;2023-06-10T06:29:47;26.00;94.50
11615;DHT22;5863;52.832;4.758;2023-06-10T06:32:15;26.00;94.50
11615;DHT22;5863;52.832;4.758;2023-06-10T06:34:51;26.10;94.40
11615;DHT22;5863;52.832;4.758;2023-06-10T06:37:21;26.40;94.30
11615;DHT22;5863;52.832;4.758;2023-06-10T06:39:47;26.70;94.10
11615;DHT22;5863;52.832;4.758;2023-06-10T06:42:14;26.80;93.50
11615;DHT22;5863;52.832;4.758;2023-06-10T06:44:41;26.70;93.70
11615;DHT22;5863;52.832;4.758;2023-06-10T06:47:09;26.90;93.50
11615;DHT22;5863;52.832;4.758;2023-06-10T06:49:36;27.10;93.60
11615;DHT22;5863;52.832;4.758;2023-06-10T06:52:04;27.10;93.10
11615;DHT22;5863;52.832;4.758;2023-06-10T06:54:31;26.90;92.80
11615;DHT22;5863;52.832;4.758;2023-06-10T06:56:57;26.70;92.90
11615;DHT22;5863;52.832;4.758;2023-06-10T06:59:24;26.70;93.20
11615;DHT22;5863;52.832;4.758;2023-06-10T07:01:52;26.90;93.30
11615;DHT22;5863;52.832;4.758;2023-06-10T07:04:21;27.10;93.00
11615;DHT22;5863;52.832;4.758;2023-06-10T07:06:48;27.40;92.30
11615;DHT22;5863;52.832;4.758;2023-06-10T07:09:14;27.40;92.00
11615;DHT22;5863;52.832;4.758;2023-06-10T07:11:42;27.60;91.60
11615;DHT22;5863;52.832;4.758;2023-06-10T07:14:09;27.70;91.40
11615;DHT22;5863;52.832;4.758;2023-06-10T07:16:35;27.80;90.90
11615;DHT22;5863;52.832;4.758;2023-06-10T07:19:03;27.90;91.00
11615;DHT22;5863;52.832;4.758;2023-06-10T07:21:31;27.90;90.80
11615;DHT22;5863;52.832;4.758;2023-06-10T07:23:59;28.00;90.50
11615;DHT22;5863;52.832;4.758;2023-06-10T07:26:26;28.20;90.50
11615;DHT22;5863;52.832;4.758;2023-06-10T07:28:52;28.40;90.30
11615;DHT22;5863;52.832;4.758;2023-06-10T07:31:19;28.20;88.60
11615;DHT22;5863;52.832;4.758;2023-06-10T07:33:46;28.20;89.00
11615;DHT22;5863;52.832;4.758;2023-06-10T07:36:13;28.30;89.60
11615;DHT22;5863;52.832;4.758;2023-06-10T07:38:41;28.20;88.90
11615;DHT22;5863;52.832;4.758;2023-06-10T07:41:08;28.40;89.20
11615;DHT22;5863;52.832;4.758;2023-06-10T07:43:35;28.40;88.00
11615;DHT22;5863;52.832;4.758;2023-06-10T07:46:03;28.50;88.20
11615;DHT22;5863;52.832;4.758;2023-06-10T07:48:30;28.30;86.80
11615;DHT22;5863;52.832;4.758;2023-06-10T07:50:57;28.50;86.70
11615;DHT22;5863;52.832;4.758;2023-06-10T07:53:24;28.40;86.50
11615;DHT22;5863;52.832;4.758;2023-06-10T07:55:52;28.10;86.20
11615;DHT22;5863;52.832;4.758;2023-06-10T07:58:18;27.80;86.50
11615;DHT22;5863;52.832;4.758;2023-06-10T08:00:47;27.70;86.80
11615;DHT22;5863;52.832;4.758;2023-06-10T08:03:14;27.70;87.90
11615;DHT22;5863;52.832;4.758;2023-06-10T08:05:40;27.90;88.00
11615;DHT22;5863;52.832;4.758;2023-06-10T08:08:07;27.90;87.40
11615;DHT22;5863;52.832;4.758;2023-06-10T08:10:34;27.90;88.00
11615;DHT22;5863;52.832;4.758;2023-06-10T08:13:02;27.90;88.60
11615;DHT22;5863;52.832;4.758;2023-06-10T08:15:28;27.50;87.90
11615;DHT22;5863;52.832;4.758;2023-06-10T08:17:55;27.20;88.60
11615;DHT22;5863;52.832;4.758;2023-06-10T08:20:23;27.00;90.10
11615;DHT22;5863;52.832;4.758;2023-06-10T08:22:49;26.90;90.20
11615;DHT22;5863;52.832;4.758;2023-06-10T08:25:16;26.90;90.80
11615;DHT22;5863;52.832;4.758;2023-06-10T08:27:43;26.60;90.70
11615;DHT22;5863;52.832;4.758;2023-06-10T08:30:12;26.50;90.90
11615;DHT22;5863;52.832;4.758;2023-06-10T08:32:38;26.40;91.40
11615;DHT22;5863;52.832;4.758;2023-06-10T08:35:05;26.30;91.70
11615;DHT22;5863;52.832;4.758;2023-06-10T08:37:32;26.10;91.80
11615;DHT22;5863;52.832;4.758;2023-06-10T08:39:59;26.00;92.30
11615;DHT22;5863;52.832;4.758;2023-06-10T08:42:31;25.80;92.00
11615;DHT22;5863;52.832;4.758;2023-06-10T08:45:01;25.70;92.40
11615;DHT22;5863;52.832;4.758;2023-06-10T08:47:30;25.50;92.00
11615;DHT22;5863;52.832;4.758;2023-06-10T08:50:01;25.40;92.50
11615;DHT22;5863;52.832;4.758;2023-06-10T08:52:35;25.40;92.60
11615;DHT22;5863;52.832;4.758;2023-06-10T08:55:04;25.40;92.10
11615;DHT22;5863;52.832;4.758;2023-06-10T08:57:31;25.40;92.20
11615;DHT22;5863;52.832;4.758;2023-06-10T08:59:58;25.40;92.80
11615;DHT22;5863;52.832;4.758;2023-06-10T09:02:25;25.20;92.10
11615;DHT22;5863;52.832;4.758;2023-06-10T09:04:53;25.20;92.20
11615;DHT22;5863;52.832;4.758;2023-06-10T09:07:22;25.10;92.50
11615;DHT22;5863;52.832;4.758;2023-06-10T09:09:50;25.10;92.80
11615;DHT22;5863;52.832;4.758;2023-06-10T09:12:20;25.20;92.60
11615;DHT22;5863;52.832;4.758;2023-06-10T09:14:46;25.10;92.10
11615;DHT22;5863;52.832;4.758;2023-06-10T09:17:13;25.10;92.10
11615;DHT22;5863;52.832;4.758;2023-06-10T09:19:40;25.10;92.50
11615;DHT22;5863;52.832;4.758;2023-06-10T09:22:09;25.10;91.90
11615;DHT22;5863;52.832;4.758;2023-06-10T09:24:36;25.10;92.60
11615;DHT22;5863;52.832;4.758;2023-06-10T09:27:04;25.10;92.70
11615;DHT22;5863;52.832;4.758;2023-06-10T09:29:31;25.20;93.40
11615;DHT22;5863;52.832;4.758;2023-06-10T09:31:58;25.30;93.20
11615;DHT22;5863;52.832;4.758;2023-06-10T09:34:25;25.40;93.20
11615;DHT22;5863;52.832;4.758;2023-06-10T09:36:53;25.50;93.60
11615;DHT22;5863;52.832;4.758;2023-06-10T09:39:23;25.60;93.60
11615;DHT22;5863;52.832;4.758;2023-06-10T09:41:50;25.70;93.00
11615;DHT22;5863;52.832;4.758;2023-06-10T09:44:19;25.80;92.90
11615;DHT22;5863;52.832;4.758;2023-06-10T09:46:46;25.80;92.60
11615;DHT22;5863;52.832;4.758;2023-06-10T09:49:13;25.80;92.00
11615;DHT22;5863;52.832;4.758;2023-06-10T09:51:49;25.60;91.70
11615;DHT22;5863;52.832;4.758;2023-06-10T09:54:17;25.50;92.40
11615;DHT22;5863;52.832;4.758;2023-06-10T09:56:47;25.40;92.20
11615;DHT22;5863;52.832;4.758;2023-06-10T09:59:14;25.50;93.10
11615;DHT22;5863;52.832;4.758;2023-06-10T10:01:41;25.60;92.00
11615;DHT22;5863;52.832;4.758;2023-06-10T10:04:08;25.60;91.90
11615;DHT22;5863;52.832;4.758;2023-06-10T10:06:35;25.60;92.20
11615;DHT22;5863;52.832;4.758;2023-06-10T10:09:02;25.60;91.80
11615;DHT22;5863;52.832;4.758;2023-06-10T10:11:31;25.50;91.50
11615;DHT22;5863;52.832;4.758;2023-06-10T10:14:03;25.50;91.80
11615;DHT22;5863;52.832;4.758;2023-06-10T10:16:35;25.60;92.20
11615;DHT22;5863;52.832;4.758;2023-06-10T10:19:07;25.60;91.40
11615;DHT22;5863;52.832;4.758;2023-06-10T10:21:40;25.60;91.10
11615;DHT22;5863;52.832;4.758;2023-06-10T10:24:15;25.60;92.10
11615;DHT22;5863;52.832;4.758;2023-06-10T10:26:42;25.60;91.80
11615;DHT22;5863;52.832;4.758;2023-06-10T10:29:16;25.70;91.60
11615;DHT22;5863;52.832;4.758;2023-06-10T10:31:48;25.80;91.80
11615;DHT22;5863;52.832;4.758;2023-06-10T10:34:21;25.90;91.90
11615;DHT22;5863;52.832;4.758;2023-06-10T10:36:50;25.90;91.70
11615;DHT22;5863;52.832;4.758;2023-06-10T10:39:17;26.10;91.20
11615;DHT22;5863;52.832;4.758;2023-06-10T10:41:45;26.20;91.10
11615;DHT22;5863;52.832;4.758;2023-06-10T10:44:13;26.20;91.20
11615;DHT22;5863;52.832;4.758;2023-06-10T10:46:43;26.10;91.00
11615;DHT22;5863;52.832;4.758;2023-06-10T10:49:12;26.00;91.00
11615;DHT22;5863;52.832;4.758;2023-06-10T10:51:56;26.00;91.60
11615;DHT22;5863;52.832;4.758;2023-06-10T10:54:28;26.10;92.10
11615;DHT22;5863;52.832;4.758;2023-06-10T10:57:13;26.10;91.00
11615;DHT22;5863;52.832;4.758;2023-06-10T10:59:59;26.20;91.10
11615;DHT22;5863;52.832;4.758;2023-06-10T11:02:35;26.20;91.60
11615;DHT22;5863;52.832;4.758;2023-06-10T11:05:05;26.20;91.60
11615;DHT22;5863;52.832;4.758;2023-06-10T11:07:33;26.30;91.80
11615;DHT22;5863;52.832;4.758;2023-06-10T11:10:01;26.30;91.70
11615;DHT22;5863;52.832;4.758;2023-06-10T11:12:41;26.30;91.70
11615;DHT22;5863;52.832;4.758;2023-06-10T11:15:10;26.30;91.40
11615;DHT22;5863;52.832;4.758;2023-06-10T11:17:36;26.30;91.50
11615;DHT22;5863;52.832;4.758;2023-06-10T11:20:04;26.20;91.70
11615;DHT22;5863;52.832;4.758;2023-06-10T11:22:31;26.20;91.40
11615;DHT22;5863;52.832;4.758;2023-06-10T11:24:57;26.10;91.60
11615;DHT22;5863;52.832;4.758;2023-06-10T11:27:24;26.20;92.20
11615;DHT22;5863;52.832;4.758;2023-06-10T11:29:58;26.20;91.40
11615;DHT22;5863;52.832;4.758;2023-06-10T11:32:31;26.30;92.30
11615;DHT22;5863;52.832;4.758;2023-06-10T11:34:58;26.30;92.00
11615;DHT22;5863;52.832;4.758;2023-06-10T11:37:25;26.20;92.20
11615;DHT22;5863;52.832;4.758;2023-06-10T11:39:52;26.20;91.60
11615;DHT22;5863;52.832;4.758;2023-06-10T11:42:20;26.10;92.20
11615;DHT22;5863;52.832;4.758;2023-06-10T11:44:50;26.10;92.30
11615;DHT22;5863;52.832;4.758;2023-06-10T11:47:17;26.10;92.80
11615;DHT22;5863;52.832;4.758;2023-06-10T11:49:46;26.10;92.40
11615;DHT22;5863;52.832;4.758;2023-06-10T11:52:26;26.10;92.50
11615;DHT22;5863;52.832;4.758;2023-06-10T11:54:54;26.10;92.60
11615;DHT22;5863;52.832;4.758;2023-06-10T11:57:21;26.10;93.10
11615;DHT22;5863;52.832;4.758;2023-06-10T11:59:47;26.20;93.10
11615;DHT22;5863;52.832;4.758;2023-06-10T12:02:15;26.20;93.30
11615;DHT22;5863;52.832;4.758;2023-06-10T12:04:41;26.30;93.40
11615;DHT22;5863;52.832;4.758;2023-06-10T12:07:17;26.30;93.10
11615;DHT22;5863;52.832;4.758;2023-06-10T12:09:44;26.20;93.00
11615;DHT22;5863;52.832;4.758;2023-06-10T12:12:11;26.20;93.60
11615;DHT22;5863;52.832;4.758;2023-06-10T12:14:52;26.20;93.70
11615;DHT22;5863;52.832;4.758;2023-06-10T12:17:23;26.10;93.10
11615;DHT22;5863;52.832;4.758;2023-06-10T12:19:50;26.10;93.70
11615;DHT22;5863;52.832;4.758;2023-06-10T12:22:18;26.00;93.80
11615;DHT22;5863;52.832;4.758;2023-06-10T12:24:57;26.00;94.00
11615;DHT22;5863;52.832;4.758;2023-06-10T12:27:25;26.00;94.00
11615;DHT22;5863;52.832;4.758;2023-06-10T12:29:54;26.10;94.00
11615;DHT22;5863;52.832;4.758;2023-06-10T12:32:21;26.00;94.10
11615;DHT22;5863;52.832;4.758;2023-06-10T12:35:02;26.00;93.80
11615;DHT22;5863;52.832;4.758;2023-06-10T12:37:31;26.00;94.00
11615;DHT22;5863;52.832;4.758;2023-06-10T12:40:00;26.10;93.80
11615;DHT22;5863;52.832;4.758;2023-06-10T12:42:29;26.10;94.10
11615;DHT22;5863;52.832;4.758;2023-06-10T12:44:57;26.10;93.50
11615;DHT22;5863;52.832;4.758;2023-06-10T12:47:30;26.10;93.90
11615;DHT22;5863;52.832;4.758;2023-06-10T12:49:58;26.10;94.00
11615;DHT22;5863;52.832;4.758;2023-06-10T12:52:25;26.00;94.20
11615;DHT22;5863;52.832;4.758;2023-06-10T12:54:53;26.00;94.90
11615;DHT22;5863;52.832;4.758;2023-06-10T12:57:20;26.10;95.30
11615;DHT22;5863;52.832;4.758;2023-06-10T12:59:46;26.10;95.40
11615;DHT22;5863;52.832;4.758;2023-06-10T13:02:18;26.00;94.60
11615;DHT22;5863;52.832;4.758;2023-06-10T13:04:45;26.00;95.70
11615;DHT22;5863;52.832;4.758;2023-06-10T13:07:11;25.90;95.70
11615;DHT22;5863;52.832;4.758;2023-06-10T13:09:38;25.90;96.20
11615;DHT22;5863;52.832;4.758;2023-06-10T13:12:07;25.90;96.20
11615;DHT22;5863;52.832;4.758;2023-06-10T13:14:35;25.80;96.20
11615;DHT22;5863;52.832;4.758;2023-06-10T13:17:03;25.70;96.30
11615;DHT22;5863;52.832;4.758;2023-06-10T13:19:31;25.70;96.70
11615;DHT22;5863;52.832;4.758;2023-06-10T13:21:58;25.60;96.80
11615;DHT22;5863;52.832;4.758;2023-06-10T13:24:24;25.50;96.70
11615;DHT22;5863;52.832;4.758;2023-06-10T13:26:51;25.50;96.40
11615;DHT22;5863;52.832;4.758;2023-06-10T13:29:19;25.40;96.60
11615;DHT22;5863;52.832;4.758;2023-06-10T13:31:46;25.40;96.70
11615;DHT22;5863;52.832;4.758;2023-06-10T13:34:13;25.40;97.50
11615;DHT22;5863;52.832;4.758;2023-06-10T13:36:40;25.40;97.70
11615;DHT22;5863;52.832;4.758;2023-06-10T13:39:06;25.40;97.60
11615;DHT22;5863;52.832;4.758;2023-06-10T13:41:33;25.30;97.90
11615;DHT22;5863;52.832;4.758;2023-06-10T13:44:00;25.30;98.20
11615;DHT22;5863;52.832;4.758;2023-06-10T13:46:28;25.20;98.50
11615;DHT22;5863;52.832;4.758;2023-06-10T13:48:55;25.20;98.20
11615;DHT22;5863;52.832;4.758;2023-06-10T13:51:23;25.20;98.80
11615;DHT22;5863;52.832;4.758;2023-06-10T13:53:49;25.20;99.00
11615;DHT22;5863;52.832;4.758;2023-06-10T13:56:17;25.10;99.40
11615;DHT22;5863;52.832;4.758;2023-06-10T13:58:43;25.10;99.30
11615;DHT22;5863;52.832;4.758;2023-06-10T14:01:10;25.00;99.50
11615;DHT22;5863;52.832;4.758;2023-06-10T14:03:38;24.90;99.60
11615;DHT22;5863;52.832;4.758;2023-06-10T14:06:05;24.90;99.90
11615;DHT22;5863;52.832;4.758;2023-06-10T14:08:33;24.80;99.90
11615;DHT22;5863;52.832;4.758;2023-06-10T14:11:00;24.70;99.90
11615;DHT22;5863;52.832;4.758;2023-06-10T14:13:26;24.70;99.90
11615;DHT22;5863;52.832;4.758;2023-06-10T14:15:53;24.70;99.90
11615;DHT22;5863;52.832;4.758;2023-06-10T14:18:20;24.70;99.90
11615;DHT22;5863;52.832;4.758;2023-06-10T14:20:48;24.70;99.90
11615;DHT22;5863;52.832;4.758;2023-06-10T14:23:15;24.60;99.90
11615;DHT22;5863;52.832;4.758;2023-06-10T14:25:41;24.50;99.90
11615;DHT22;5863;52.832;4.758;2023-06-10T14:28:08;24.50;99.90
11615;DHT22;5863;52.832;4.758;2023-06-10T14:30:35;24.40;99.90
11615;DHT22;5863;52.832;4.758;2023-06-10T14:33:01;24.40;99.90
11615;DHT22;5863;52.832;4.758;2023-06-10T14:35:28;24.40;99.90
11615;DHT22;5863;52.832;4.758;2023-06-10T14:37:56;24.30;99.90
11615;DHT22;5863;52.832;4.758;2023-06-10T14:40:23;24.30;99.90
11615;DHT22;5863;52.832;4.758;2023-06-10T14:42:51;24.30;99.90
11615;DHT22;5863;52.832;4.758;2023-06-10T14:45:18;24.20;99.90
11615;DHT22;5863;52.832;4.758;2023-06-10T14:47:45;24.20;99.90
11615;DHT22;5863;52.832;4.758;2023-06-10T14:50:12;24.20;99.90
11615;DHT22;5863;52.832;4.758;2023-06-10T14:52:39;24.20;99.90
11615;DHT22;5863;52.832;4.758;2023-06-10T14:55:07;24.20;99.90
11615;DHT22;5863;52.832;4.758;2023-06-10T14:57:34;24.20;99.90
11615;DHT22;5863;52.832;4.758;2023-06-10T15:00:01;24.20;99.90
11615;DHT22;5863;52.832;4.758;2023-06-10T15:02:28;24.10;99.90
11615;DHT22;5863;52.832;4.758;2023-06-10T15:04:54;24.10;99.90
11615;DHT22;5863;52.832;4.758;2023-06-10T15:07:21;24.00;99.90
11615;DHT22;5863;52.832;4.758;2023-06-10T15:09:48;24.00;99.90
11615;DHT22;5863;52.832;4.758;2023-06-10T15:12:16;24.00;99.90
11615;DHT22;5863;52.832;4.758;2023-06-10T15:14:42;23.90;99.90
11615;DHT22;5863;52.832;4.758;2023-06-10T15:17:09;23.90;99.90
11615;DHT22;5863;52.832;4.758;2023-06-10T15:19:36;23.90;99.90
11615;DHT22;5863;52.832;4.758;2023-06-10T15:22:03;23.90;99.90
11615;DHT22;5863;52.832;4.758;2023-06-10T15:24:30;23.90;99.90
11615;DHT22;5863;52.832;4.758;2023-06-10T15:26:56;23.90;99.90
11615;DHT22;5863;52.832;4.758;2023-06-10T15:29:24;23.80;99.90
11615;DHT22;5863;52.832;4.758;2023-06-10T15:31:51;23.80;99.90
11615;DHT22;5863;52.832;4.758;2023-06-10T15:34:18;23.80;99.90
11615;DHT22;5863;52.832;4.758;2023-06-10T15:36:44;23.80;99.90
11615;DHT22;5863;52.832;4.758;2023-06-10T15:39:11;23.80;99.90
11615;DHT22;5863;52.832;4.758;2023-06-10T15:41:38;23.80;99.90
11615;DHT22;5863;52.832;4.758;2023-06-10T15:44:04;23.80;99.90
11615;DHT22;5863;52.832;4.758;2023-06-10T15:46:32;23.80;99.90
11615;DHT22;5863;52.832;4.758;2023-06-10T15:49:00;23.90;99.90